sensor_id;sensor_type;location;lat;lon;timestamp;P1;durP1;ratioP1;P2;durP2;ratioP2
12774;SDS011;6451;42.630;23.382;2022-11-15T00:02:27;22.67;;;16.57;;
12774;SDS011;6451;42.630;23.382;2022-11-15T00:04:54;24.30;;;17.10;;
12774;SDS011;6451;42.630;23.382;2022-11-15T00:07:22;19.67;;;15.60;;
12774;SDS011;6451;42.630;23.382;2022-11-15T00:09:49;22.67;;;15.47;;
12774;SDS011;6451;42.630;23.382;2022-11-15T00:12:16;21.77;;;15.50;;
12774;SDS011;6451;42.630;23.382;2022-11-15T00:14:43;21.17;;;15.60;;
12774;SDS011;6451;42.630;23.382;2022-11-15T00:17:10;19.80;;;15.43;;
12774;SDS011;6451;42.630;23.382;2022-11-15T00:19:38;24.17;;;18.30;;
12774;SDS011;6451;42.630;23.382;2022-11-15T00:22:05;23.53;;;17.40;;
12774;SDS011;6451;42.630;23.382;2022-11-15T00:24:32;27.33;;;18.60;;
12774;SDS011;6451;42.630;23.382;2022-11-15T00:26:59;25.23;;;17.73;;
12774;SDS011;6451;42.630;23.382;2022-11-15T00:29:26;24.37;;;17.80;;
12774;SDS011;6451;42.630;23.382;2022-11-15T00:31:52;23.93;;;17.97;;
12774;SDS011;6451;42.630;23.382;2022-11-15T00:34:19;27.87;;;19.90;;
12774;SDS011;6451;42.630;23.382;2022-11-15T00:36:48;32.90;;;22.37;;
12774;SDS011;6451;42.630;23.382;2022-11-15T00:39:14;42.93;;;29.93;;
12774;SDS011;6451;42.630;23.382;2022-11-15T00:41:41;49.97;;;33.00;;
12774;SDS011;6451;42.630;23.382;2022-11-15T00:44:08;44.90;;;29.40;;
12774;SDS011;6451;42.630;23.382;2022-11-15T00:46:35;30.73;;;22.13;;
12774;SDS011;6451;42.630;23.382;2022-11-15T00:49:02;23.13;;;16.60;;
12774;SDS011;6451;42.630;23.382;2022-11-15T00:51:29;20.20;;;15.23;;
12774;SDS011;6451;42.630;23.382;2022-11-15T00:53:57;20.27;;;15.00;;
12774;SDS011;6451;42.630;23.382;2022-11-15T00:56:24;19.63;;;14.30;;
12774;SDS011;6451;42.630;23.382;2022-11-15T00:58:52;20.67;;;15.37;;
12774;SDS011;6451;42.630;23.382;2022-11-15T01:01:19;19.77;;;14.40;;
12774;SDS011;6451;42.630;23.382;2022-11-15T01:03:45;18.10;;;13.57;;
12774;SDS011;6451;42.630;23.382;2022-11-15T01:06:13;20.60;;;15.07;;
12774;SDS011;6451;42.630;23.382;2022-11-15T01:08:41;23.43;;;16.50;;
12774;SDS011;6451;42.630;23.382;2022-11-15T01:11:10;25.23;;;15.97;;
12774;SDS011;6451;42.630;23.382;2022-11-15T01:13:38;27.43;;;18.37;;
12774;SDS011;6451;42.630;23.382;2022-11-15T01:16:06;26.03;;;18.00;;
12774;SDS011;6451;42.630;23.382;2022-11-15T01:18:34;21.83;;;16.07;;
12774;SDS011;6451;42.630;23.382;2022-11-15T01:21:04;23.87;;;16.83;;
12774;SDS011;6451;42.630;23.382;2022-11-15T01:23:32;23.90;;;16.87;;
12774;SDS011;6451;42.630;23.382;2022-11-15T01:25:59;26.43;;;18.30;;
12774;SDS011;6451;42.630;23.382;2022-11-15T01:28:30;29.03;;;20.00;;
12774;SDS011;6451;42.630;23.382;2022-11-15T01:30:58;32.30;;;21.53;;
12774;SDS011;6451;42.630;23.382;2022-11-15T01:33:25;31.13;;;21.13;;
12774;SDS011;6451;42.630;23.382;2022-11-15T01:36:19;27.23;;;20.33;;
12774;SDS011;6451;42.630;23.382;2022-11-15T01:38:47;33.87;;;23.27;;
12774;SDS011;6451;42.630;23.382;2022-11-15T01:41:20;30.37;;;21.47;;
12774;SDS011;6451;42.630;23.382;2022-11-15T01:43:51;29.83;;;19.77;;
12774;SDS011;6451;42.630;23.382;2022-11-15T01:46:23;23.90;;;16.17;;
12774;SDS011;6451;42.630;23.382;2022-11-15T01:48:54;22.00;;;15.20;;
12774;SDS011;6451;42.630;23.382;2022-11-15T01:51:26;22.87;;;16.83;;
12774;SDS011;6451;42.630;23.382;2022-11-15T01:53:57;27.83;;;19.90;;
12774;SDS011;6451;42.630;23.382;2022-11-15T01:56:29;26.70;;;18.30;;
12774;SDS011;6451;42.630;23.382;2022-11-15T01:59:01;23.03;;;16.80;;
12774;SDS011;6451;42.630;23.382;2022-11-15T02:01:31;18.40;;;14.07;;
12774;SDS011;6451;42.630;23.382;2022-11-15T02:04:00;16.77;;;13.13;;
12774;SDS011;6451;42.630;23.382;2022-11-15T02:06:30;18.20;;;13.97;;
12774;SDS011;6451;42.630;23.382;2022-11-15T02:08:57;19.57;;;13.17;;
12774;SDS011;6451;42.630;23.382;2022-11-15T02:11:26;16.80;;;12.43;;
12774;SDS011;6451;42.630;23.382;2022-11-15T02:13:54;19.93;;;12.67;;
12774;SDS011;6451;42.630;23.382;2022-11-15T02:16:25;21.00;;;14.57;;
12774;SDS011;6451;42.630;23.382;2022-11-15T02:18:59;22.03;;;15.50;;
12774;SDS011;6451;42.630;23.382;2022-11-15T02:21:38;22.10;;;16.57;;
12774;SDS011;6451;42.630;23.382;2022-11-15T02:30:23;25.47;;;16.50;;
12774;SDS011;6451;42.630;23.382;2022-11-15T02:32:52;22.87;;;16.17;;
12774;SDS011;6451;42.630;23.382;2022-11-15T02:35:26;26.17;;;17.00;;
12774;SDS011;6451;42.630;23.382;2022-11-15T02:37:59;21.63;;;15.23;;
12774;SDS011;6451;42.630;23.382;2022-11-15T02:40:34;22.03;;;15.60;;
12774;SDS011;6451;42.630;23.382;2022-11-15T02:43:08;24.13;;;16.40;;
12774;SDS011;6451;42.630;23.382;2022-11-15T02:45:58;22.10;;;15.30;;
12774;SDS011;6451;42.630;23.382;2022-11-15T02:48:30;17.60;;;14.17;;
12774;SDS011;6451;42.630;23.382;2022-11-15T02:50:58;19.00;;;13.60;;
12774;SDS011;6451;42.630;23.382;2022-11-15T02:53:28;17.90;;;13.30;;
12774;SDS011;6451;42.630;23.382;2022-11-15T02:55:55;18.13;;;13.37;;
12774;SDS011;6451;42.630;23.382;2022-11-15T02:58:27;20.03;;;13.40;;
12774;SDS011;6451;42.630;23.382;2022-11-15T03:01:15;20.53;;;14.43;;
12774;SDS011;6451;42.630;23.382;2022-11-15T03:03:56;19.27;;;14.13;;
12774;SDS011;6451;42.630;23.382;2022-11-15T03:06:30;19.47;;;14.17;;
12774;SDS011;6451;42.630;23.382;2022-11-15T03:09:05;19.77;;;14.60;;
12774;SDS011;6451;42.630;23.382;2022-11-15T03:11:37;22.70;;;15.40;;
12774;SDS011;6451;42.630;23.382;2022-11-15T03:14:10;21.53;;;15.93;;
12774;SDS011;6451;42.630;23.382;2022-11-15T03:16:47;26.70;;;18.67;;
12774;SDS011;6451;42.630;23.382;2022-11-15T03:19:22;29.07;;;19.40;;
12774;SDS011;6451;42.630;23.382;2022-11-15T03:21:58;28.33;;;20.47;;
12774;SDS011;6451;42.630;23.382;2022-11-15T03:24:29;27.37;;;19.03;;
12774;SDS011;6451;42.630;23.382;2022-11-15T03:27:01;24.27;;;18.13;;
12774;SDS011;6451;42.630;23.382;2022-11-15T03:29:31;20.57;;;14.87;;
12774;SDS011;6451;42.630;23.382;2022-11-15T03:32:03;17.47;;;12.97;;
12774;SDS011;6451;42.630;23.382;2022-11-15T03:34:34;18.17;;;11.33;;
12774;SDS011;6451;42.630;23.382;2022-11-15T03:37:06;16.87;;;12.63;;
12774;SDS011;6451;42.630;23.382;2022-11-15T03:39:36;18.27;;;12.57;;
12774;SDS011;6451;42.630;23.382;2022-11-15T03:42:04;15.43;;;12.17;;
12774;SDS011;6451;42.630;23.382;2022-11-15T03:44:51;16.40;;;12.33;;
12774;SDS011;6451;42.630;23.382;2022-11-15T03:47:27;16.70;;;12.43;;
12774;SDS011;6451;42.630;23.382;2022-11-15T03:49:57;16.50;;;12.77;;
12774;SDS011;6451;42.630;23.382;2022-11-15T03:52:30;17.13;;;13.27;;
12774;SDS011;6451;42.630;23.382;2022-11-15T03:54:59;17.23;;;12.97;;
12774;SDS011;6451;42.630;23.382;2022-11-15T03:57:30;19.03;;;13.77;;
12774;SDS011;6451;42.630;23.382;2022-11-15T03:59:57;22.90;;;16.17;;
12774;SDS011;6451;42.630;23.382;2022-11-15T04:02:24;24.17;;;17.80;;
12774;SDS011;6451;42.630;23.382;2022-11-15T04:04:53;37.40;;;27.93;;
12774;SDS011;6451;42.630;23.382;2022-11-15T04:07:20;72.20;;;35.40;;
12774;SDS011;6451;42.630;23.382;2022-11-15T04:09:47;68.40;;;37.70;;
12774;SDS011;6451;42.630;23.382;2022-11-15T04:12:28;66.07;;;39.37;;
12774;SDS011;6451;42.630;23.382;2022-11-15T04:15:00;158.47;;;42.50;;
12774;SDS011;6451;42.630;23.382;2022-11-15T04:17:37;86.57;;;40.80;;
12774;SDS011;6451;42.630;23.382;2022-11-15T04:20:06;82.90;;;37.80;;
12774;SDS011;6451;42.630;23.382;2022-11-15T04:22:53;175.60;;;41.97;;
12774;SDS011;6451;42.630;23.382;2022-11-15T04:25:39;83.20;;;38.17;;
12774;SDS011;6451;42.630;23.382;2022-11-15T04:28:06;85.63;;;37.80;;
12774;SDS011;6451;42.630;23.382;2022-11-15T04:30:33;130.20;;;36.73;;
12774;SDS011;6451;42.630;23.382;2022-11-15T04:33:01;95.57;;;35.60;;
12774;SDS011;6451;42.630;23.382;2022-11-15T04:35:28;172.53;;;35.27;;
12774;SDS011;6451;42.630;23.382;2022-11-15T04:37:57;86.70;;;35.90;;
12774;SDS011;6451;42.630;23.382;2022-11-15T04:40:24;149.63;;;33.00;;
12774;SDS011;6451;42.630;23.382;2022-11-15T04:42:51;144.90;;;34.47;;
12774;SDS011;6451;42.630;23.382;2022-11-15T04:45:18;125.33;;;34.10;;
12774;SDS011;6451;42.630;23.382;2022-11-15T04:47:45;125.70;;;32.17;;
12774;SDS011;6451;42.630;23.382;2022-11-15T04:50:15;64.43;;;30.73;;
12774;SDS011;6451;42.630;23.382;2022-11-15T04:52:43;77.13;;;32.13;;
12774;SDS011;6451;42.630;23.382;2022-11-15T04:55:16;128.50;;;32.87;;
12774;SDS011;6451;42.630;23.382;2022-11-15T04:57:42;124.00;;;34.33;;
12774;SDS011;6451;42.630;23.382;2022-11-15T05:00:10;95.50;;;32.40;;
12774;SDS011;6451;42.630;23.382;2022-11-15T05:02:39;150.67;;;30.60;;
12774;SDS011;6451;42.630;23.382;2022-11-15T05:05:25;165.63;;;34.40;;
12774;SDS011;6451;42.630;23.382;2022-11-15T05:07:52;162.57;;;33.50;;
12774;SDS011;6451;42.630;23.382;2022-11-15T05:10:19;134.43;;;32.47;;
12774;SDS011;6451;42.630;23.382;2022-11-15T05:12:46;73.57;;;31.87;;
12774;SDS011;6451;42.630;23.382;2022-11-15T05:15:13;105.63;;;37.37;;
12774;SDS011;6451;42.630;23.382;2022-11-15T05:17:40;89.27;;;36.27;;
12774;SDS011;6451;42.630;23.382;2022-11-15T05:20:07;68.13;;;34.87;;
12774;SDS011;6451;42.630;23.382;2022-11-15T05:22:36;97.77;;;36.40;;
12774;SDS011;6451;42.630;23.382;2022-11-15T05:25:04;104.67;;;36.27;;
12774;SDS011;6451;42.630;23.382;2022-11-15T05:27:32;89.97;;;37.20;;
12774;SDS011;6451;42.630;23.382;2022-11-15T05:29:59;88.87;;;35.23;;
12774;SDS011;6451;42.630;23.382;2022-11-15T05:32:26;88.90;;;34.30;;
12774;SDS011;6451;42.630;23.382;2022-11-15T05:34:54;68.63;;;34.27;;
12774;SDS011;6451;42.630;23.382;2022-11-15T05:37:21;62.60;;;33.97;;
12774;SDS011;6451;42.630;23.382;2022-11-15T05:39:50;61.23;;;32.60;;
12774;SDS011;6451;42.630;23.382;2022-11-15T05:42:17;62.03;;;31.10;;
12774;SDS011;6451;42.630;23.382;2022-11-15T05:44:46;65.50;;;32.00;;
12774;SDS011;6451;42.630;23.382;2022-11-15T05:47:16;57.50;;;29.73;;
12774;SDS011;6451;42.630;23.382;2022-11-15T05:49:47;50.83;;;28.37;;
12774;SDS011;6451;42.630;23.382;2022-11-15T05:52:18;46.53;;;27.27;;
12774;SDS011;6451;42.630;23.382;2022-11-15T05:54:47;42.00;;;24.90;;
12774;SDS011;6451;42.630;23.382;2022-11-15T05:57:17;44.97;;;26.80;;
12774;SDS011;6451;42.630;23.382;2022-11-15T05:59:44;47.00;;;27.13;;
12774;SDS011;6451;42.630;23.382;2022-11-15T06:02:11;48.47;;;26.70;;
12774;SDS011;6451;42.630;23.382;2022-11-15T06:04:38;53.70;;;27.77;;
12774;SDS011;6451;42.630;23.382;2022-11-15T06:07:05;47.73;;;27.80;;
12774;SDS011;6451;42.630;23.382;2022-11-15T06:09:32;46.20;;;25.83;;
12774;SDS011;6451;42.630;23.382;2022-11-15T06:12:01;45.30;;;26.63;;
12774;SDS011;6451;42.630;23.382;2022-11-15T06:14:28;42.33;;;25.40;;
12774;SDS011;6451;42.630;23.382;2022-11-15T06:16:55;42.80;;;24.27;;
12774;SDS011;6451;42.630;23.382;2022-11-15T06:19:22;37.87;;;23.70;;
12774;SDS011;6451;42.630;23.382;2022-11-15T06:21:50;35.20;;;21.80;;
12774;SDS011;6451;42.630;23.382;2022-11-15T06:24:17;35.33;;;20.90;;
12774;SDS011;6451;42.630;23.382;2022-11-15T06:26:44;34.50;;;22.47;;
12774;SDS011;6451;42.630;23.382;2022-11-15T06:29:13;37.30;;;21.87;;
12774;SDS011;6451;42.630;23.382;2022-11-15T06:31:40;35.30;;;22.10;;
12774;SDS011;6451;42.630;23.382;2022-11-15T06:34:07;32.73;;;22.07;;
12774;SDS011;6451;42.630;23.382;2022-11-15T06:36:35;49.90;;;31.37;;
12774;SDS011;6451;42.630;23.382;2022-11-15T06:39:04;54.67;;;28.83;;
12774;SDS011;6451;42.630;23.382;2022-11-15T06:41:33;57.47;;;30.83;;
12774;SDS011;6451;42.630;23.382;2022-11-15T06:44:02;56.13;;;29.13;;
12774;SDS011;6451;42.630;23.382;2022-11-15T06:46:31;49.47;;;30.53;;
12774;SDS011;6451;42.630;23.382;2022-11-15T06:48:57;48.97;;;29.00;;
12774;SDS011;6451;42.630;23.382;2022-11-15T06:51:24;55.47;;;29.60;;
12774;SDS011;6451;42.630;23.382;2022-11-15T06:53:51;43.37;;;25.40;;
12774;SDS011;6451;42.630;23.382;2022-11-15T06:56:18;29.10;;;19.57;;
12774;SDS011;6451;42.630;23.382;2022-11-15T06:58:45;27.07;;;18.40;;
12774;SDS011;6451;42.630;23.382;2022-11-15T07:01:12;26.57;;;17.90;;
12774;SDS011;6451;42.630;23.382;2022-11-15T07:03:42;28.40;;;18.33;;
12774;SDS011;6451;42.630;23.382;2022-11-15T07:06:08;31.10;;;21.20;;
12774;SDS011;6451;42.630;23.382;2022-11-15T07:08:36;31.13;;;20.57;;
12774;SDS011;6451;42.630;23.382;2022-11-15T07:11:03;31.00;;;19.93;;
12774;SDS011;6451;42.630;23.382;2022-11-15T07:13:32;24.70;;;16.47;;
12774;SDS011;6451;42.630;23.382;2022-11-15T07:16:01;31.70;;;20.17;;
12774;SDS011;6451;42.630;23.382;2022-11-15T07:18:28;29.27;;;18.90;;
12774;SDS011;6451;42.630;23.382;2022-11-15T07:20:59;30.27;;;18.67;;
12774;SDS011;6451;42.630;23.382;2022-11-15T07:23:27;30.00;;;20.37;;
12774;SDS011;6451;42.630;23.382;2022-11-15T07:25:55;38.97;;;23.10;;
12774;SDS011;6451;42.630;23.382;2022-11-15T07:28:22;31.77;;;21.43;;
12774;SDS011;6451;42.630;23.382;2022-11-15T07:30:49;33.27;;;21.20;;
12774;SDS011;6451;42.630;23.382;2022-11-15T07:33:16;36.00;;;21.30;;
12774;SDS011;6451;42.630;23.382;2022-11-15T07:35:44;40.87;;;23.17;;
12774;SDS011;6451;42.630;23.382;2022-11-15T07:38:16;39.17;;;22.33;;
12774;SDS011;6451;42.630;23.382;2022-11-15T07:40:44;44.50;;;22.83;;
12774;SDS011;6451;42.630;23.382;2022-11-15T07:43:12;45.37;;;24.43;;
12774;SDS011;6451;42.630;23.382;2022-11-15T07:45:42;41.87;;;24.77;;
12774;SDS011;6451;42.630;23.382;2022-11-15T07:48:10;45.27;;;25.30;;
12774;SDS011;6451;42.630;23.382;2022-11-15T07:50:37;39.33;;;25.50;;
12774;SDS011;6451;42.630;23.382;2022-11-15T07:53:07;45.27;;;24.53;;
12774;SDS011;6451;42.630;23.382;2022-11-15T07:55:37;46.77;;;25.27;;
12774;SDS011;6451;42.630;23.382;2022-11-15T07:58:06;43.33;;;24.33;;
12774;SDS011;6451;42.630;23.382;2022-11-15T08:00:34;42.20;;;24.67;;
12774;SDS011;6451;42.630;23.382;2022-11-15T08:03:03;47.23;;;26.73;;
12774;SDS011;6451;42.630;23.382;2022-11-15T08:05:30;51.97;;;28.00;;
12774;SDS011;6451;42.630;23.382;2022-11-15T08:07:59;47.00;;;26.43;;
12774;SDS011;6451;42.630;23.382;2022-11-15T08:10:26;48.30;;;26.77;;
12774;SDS011;6451;42.630;23.382;2022-11-15T08:12:59;50.83;;;27.40;;
12774;SDS011;6451;42.630;23.382;2022-11-15T08:15:27;42.77;;;26.80;;
12774;SDS011;6451;42.630;23.382;2022-11-15T08:17:55;48.77;;;27.37;;
12774;SDS011;6451;42.630;23.382;2022-11-15T08:20:23;47.73;;;28.47;;
12774;SDS011;6451;42.630;23.382;2022-11-15T08:22:51;48.67;;;29.07;;
12774;SDS011;6451;42.630;23.382;2022-11-15T08:25:18;69.20;;;39.73;;
12774;SDS011;6451;42.630;23.382;2022-11-15T08:27:46;68.90;;;40.10;;
12774;SDS011;6451;42.630;23.382;2022-11-15T08:30:14;69.23;;;38.90;;
12774;SDS011;6451;42.630;23.382;2022-11-15T08:32:42;70.93;;;42.87;;
12774;SDS011;6451;42.630;23.382;2022-11-15T08:35:10;82.30;;;45.10;;
12774;SDS011;6451;42.630;23.382;2022-11-15T08:37:37;74.83;;;44.33;;
12774;SDS011;6451;42.630;23.382;2022-11-15T08:40:04;78.10;;;44.73;;
12774;SDS011;6451;42.630;23.382;2022-11-15T08:42:32;80.13;;;43.73;;
12774;SDS011;6451;42.630;23.382;2022-11-15T08:44:59;75.27;;;40.13;;
12774;SDS011;6451;42.630;23.382;2022-11-15T08:47:27;67.27;;;39.87;;
12774;SDS011;6451;42.630;23.382;2022-11-15T08:49:54;66.50;;;39.83;;
12774;SDS011;6451;42.630;23.382;2022-11-15T08:52:21;66.70;;;39.90;;
12774;SDS011;6451;42.630;23.382;2022-11-15T08:54:49;67.57;;;40.40;;
12774;SDS011;6451;42.630;23.382;2022-11-15T08:57:16;71.23;;;41.70;;
12774;SDS011;6451;42.630;23.382;2022-11-15T08:59:43;66.20;;;41.13;;
12774;SDS011;6451;42.630;23.382;2022-11-15T09:02:11;67.30;;;39.53;;
12774;SDS011;6451;42.630;23.382;2022-11-15T09:04:41;61.17;;;38.43;;
12774;SDS011;6451;42.630;23.382;2022-11-15T09:07:09;71.80;;;43.20;;
12774;SDS011;6451;42.630;23.382;2022-11-15T09:09:37;70.07;;;41.50;;
12774;SDS011;6451;42.630;23.382;2022-11-15T09:12:05;73.93;;;42.23;;
12774;SDS011;6451;42.630;23.382;2022-11-15T09:14:33;74.33;;;42.03;;
12774;SDS011;6451;42.630;23.382;2022-11-15T09:17:00;69.10;;;41.00;;
12774;SDS011;6451;42.630;23.382;2022-11-15T09:19:28;74.43;;;42.77;;
12774;SDS011;6451;42.630;23.382;2022-11-15T09:21:56;69.83;;;42.53;;
12774;SDS011;6451;42.630;23.382;2022-11-15T09:24:23;73.90;;;42.63;;
12774;SDS011;6451;42.630;23.382;2022-11-15T09:26:50;79.10;;;45.70;;
12774;SDS011;6451;42.630;23.382;2022-11-15T09:29:17;77.83;;;44.67;;
12774;SDS011;6451;42.630;23.382;2022-11-15T09:31:46;75.63;;;44.73;;
12774;SDS011;6451;42.630;23.382;2022-11-15T09:34:13;74.77;;;45.63;;
12774;SDS011;6451;42.630;23.382;2022-11-15T09:36:40;77.47;;;45.63;;
12774;SDS011;6451;42.630;23.382;2022-11-15T09:39:08;72.67;;;44.87;;
12774;SDS011;6451;42.630;23.382;2022-11-15T09:41:48;77.13;;;42.90;;
12774;SDS011;6451;42.630;23.382;2022-11-15T09:50:41;66.43;;;41.40;;
12774;SDS011;6451;42.630;23.382;2022-11-15T09:53:19;67.77;;;40.83;;
12774;SDS011;6451;42.630;23.382;2022-11-15T09:55:58;68.43;;;42.17;;
12774;SDS011;6451;42.630;23.382;2022-11-15T09:58:29;65.60;;;43.37;;
12774;SDS011;6451;42.630;23.382;2022-11-15T10:01:04;70.73;;;43.87;;
12774;SDS011;6451;42.630;23.382;2022-11-15T10:03:36;71.30;;;44.13;;
12774;SDS011;6451;42.630;23.382;2022-11-15T10:06:08;67.07;;;40.97;;
12774;SDS011;6451;42.630;23.382;2022-11-15T10:08:51;67.37;;;41.80;;
12774;SDS011;6451;42.630;23.382;2022-11-15T10:11:25;75.20;;;42.90;;
12774;SDS011;6451;42.630;23.382;2022-11-15T10:13:54;73.57;;;44.07;;
12774;SDS011;6451;42.630;23.382;2022-11-15T10:16:31;67.10;;;43.27;;
12774;SDS011;6451;42.630;23.382;2022-11-15T10:19:17;66.77;;;42.63;;
12774;SDS011;6451;42.630;23.382;2022-11-15T10:21:54;69.43;;;43.83;;
12774;SDS011;6451;42.630;23.382;2022-11-15T10:24:35;72.93;;;44.97;;
12774;SDS011;6451;42.630;23.382;2022-11-15T10:27:09;68.93;;;43.53;;
12774;SDS011;6451;42.630;23.382;2022-11-15T10:29:42;69.67;;;44.63;;
12774;SDS011;6451;42.630;23.382;2022-11-15T10:32:11;71.57;;;44.27;;
12774;SDS011;6451;42.630;23.382;2022-11-15T10:34:39;69.30;;;42.93;;
12774;SDS011;6451;42.630;23.382;2022-11-15T10:37:09;63.60;;;41.63;;
12774;SDS011;6451;42.630;23.382;2022-11-15T10:39:37;62.83;;;40.97;;
12774;SDS011;6451;42.630;23.382;2022-11-15T10:42:27;66.53;;;42.97;;
12774;SDS011;6451;42.630;23.382;2022-11-15T10:44:55;71.17;;;42.37;;
12774;SDS011;6451;42.630;23.382;2022-11-15T10:47:23;72.23;;;45.30;;
12774;SDS011;6451;42.630;23.382;2022-11-15T10:49:53;75.73;;;49.67;;
12774;SDS011;6451;42.630;23.382;2022-11-15T10:52:25;70.93;;;47.80;;
12774;SDS011;6451;42.630;23.382;2022-11-15T10:54:55;68.43;;;47.90;;
12774;SDS011;6451;42.630;23.382;2022-11-15T10:57:28;61.10;;;40.57;;
12774;SDS011;6451;42.630;23.382;2022-11-15T10:59:57;65.77;;;42.17;;
12774;SDS011;6451;42.630;23.382;2022-11-15T11:02:28;62.47;;;41.37;;
12774;SDS011;6451;42.630;23.382;2022-11-15T11:04:57;61.33;;;39.33;;
12774;SDS011;6451;42.630;23.382;2022-11-15T11:07:25;63.27;;;41.13;;
12774;SDS011;6451;42.630;23.382;2022-11-15T11:09:57;65.27;;;41.53;;
12774;SDS011;6451;42.630;23.382;2022-11-15T11:12:29;64.10;;;42.83;;
12774;SDS011;6451;42.630;23.382;2022-11-15T11:14:58;60.53;;;40.97;;
12774;SDS011;6451;42.630;23.382;2022-11-15T11:17:30;63.07;;;41.20;;
12774;SDS011;6451;42.630;23.382;2022-11-15T11:20:04;64.00;;;40.57;;
12774;SDS011;6451;42.630;23.382;2022-11-15T11:22:38;63.83;;;41.63;;
12774;SDS011;6451;42.630;23.382;2022-11-15T11:25:19;63.67;;;38.63;;
12774;SDS011;6451;42.630;23.382;2022-11-15T11:27:59;59.60;;;39.87;;
12774;SDS011;6451;42.630;23.382;2022-11-15T11:30:54;61.00;;;39.23;;
12774;SDS011;6451;42.630;23.382;2022-11-15T11:33:28;59.87;;;38.57;;
12774;SDS011;6451;42.630;23.382;2022-11-15T11:36:01;58.70;;;38.53;;
12774;SDS011;6451;42.630;23.382;2022-11-15T11:38:39;61.20;;;38.90;;
12774;SDS011;6451;42.630;23.382;2022-11-15T11:41:20;59.57;;;38.20;;
12774;SDS011;6451;42.630;23.382;2022-11-15T11:44:03;60.07;;;37.77;;
12774;SDS011;6451;42.630;23.382;2022-11-15T11:46:49;56.60;;;36.67;;
12774;SDS011;6451;42.630;23.382;2022-11-15T11:49:25;58.60;;;38.00;;
12774;SDS011;6451;42.630;23.382;2022-11-15T11:52:00;62.57;;;38.90;;
12774;SDS011;6451;42.630;23.382;2022-11-15T11:54:34;64.10;;;39.23;;
12774;SDS011;6451;42.630;23.382;2022-11-15T11:57:05;62.93;;;38.93;;
12774;SDS011;6451;42.630;23.382;2022-11-15T11:59:41;59.73;;;39.33;;
12774;SDS011;6451;42.630;23.382;2022-11-15T12:02:13;65.47;;;38.50;;
12774;SDS011;6451;42.630;23.382;2022-11-15T12:04:45;64.00;;;39.00;;
12774;SDS011;6451;42.630;23.382;2022-11-15T12:07:18;59.07;;;38.90;;
12774;SDS011;6451;42.630;23.382;2022-11-15T12:09:51;58.10;;;38.93;;
12774;SDS011;6451;42.630;23.382;2022-11-15T12:12:25;56.57;;;38.37;;
12774;SDS011;6451;42.630;23.382;2022-11-15T12:15:00;58.33;;;37.17;;
12774;SDS011;6451;42.630;23.382;2022-11-15T12:17:30;62.83;;;39.50;;
12774;SDS011;6451;42.630;23.382;2022-11-15T12:20:02;56.00;;;36.77;;
12774;SDS011;6451;42.630;23.382;2022-11-15T12:22:36;61.73;;;39.03;;
12774;SDS011;6451;42.630;23.382;2022-11-15T12:25:14;60.43;;;39.67;;
12774;SDS011;6451;42.630;23.382;2022-11-15T12:27:46;56.70;;;37.90;;
12774;SDS011;6451;42.630;23.382;2022-11-15T12:30:19;59.33;;;37.37;;
12774;SDS011;6451;42.630;23.382;2022-11-15T12:32:50;56.60;;;38.40;;
12774;SDS011;6451;42.630;23.382;2022-11-15T12:35:27;60.17;;;38.73;;
12774;SDS011;6451;42.630;23.382;2022-11-15T12:37:56;57.53;;;39.87;;
12774;SDS011;6451;42.630;23.382;2022-11-15T12:40:25;60.47;;;38.40;;
12774;SDS011;6451;42.630;23.382;2022-11-15T12:42:57;60.87;;;38.00;;
12774;SDS011;6451;42.630;23.382;2022-11-15T12:45:42;52.93;;;37.33;;
12774;SDS011;6451;42.630;23.382;2022-11-15T12:57:49;58.10;;;37.27;;
12774;SDS011;6451;42.630;23.382;2022-11-15T13:06:01;56.70;;;36.30;;
12774;SDS011;6451;42.630;23.382;2022-11-15T13:08:38;55.53;;;36.83;;
12774;SDS011;6451;42.630;23.382;2022-11-15T13:17:24;57.83;;;38.60;;
12774;SDS011;6451;42.630;23.382;2022-11-15T13:20:14;62.33;;;37.90;;
12774;SDS011;6451;42.630;23.382;2022-11-15T13:22:45;57.23;;;38.30;;
12774;SDS011;6451;42.630;23.382;2022-11-15T13:25:16;54.63;;;37.30;;
12774;SDS011;6451;42.630;23.382;2022-11-15T13:27:47;55.57;;;37.03;;
12774;SDS011;6451;42.630;23.382;2022-11-15T13:30:18;57.80;;;38.13;;
12774;SDS011;6451;42.630;23.382;2022-11-15T13:32:49;57.17;;;38.67;;
12774;SDS011;6451;42.630;23.382;2022-11-15T13:35:20;55.40;;;36.63;;
12774;SDS011;6451;42.630;23.382;2022-11-15T13:37:48;63.43;;;36.97;;
12774;SDS011;6451;42.630;23.382;2022-11-15T13:40:20;59.13;;;37.27;;
12774;SDS011;6451;42.630;23.382;2022-11-15T13:42:50;54.83;;;36.60;;
12774;SDS011;6451;42.630;23.382;2022-11-15T13:45:17;57.23;;;38.33;;
12774;SDS011;6451;42.630;23.382;2022-11-15T13:47:51;57.80;;;37.63;;
12774;SDS011;6451;42.630;23.382;2022-11-15T13:50:21;60.00;;;38.37;;
12774;SDS011;6451;42.630;23.382;2022-11-15T13:52:51;58.57;;;38.00;;
12774;SDS011;6451;42.630;23.382;2022-11-15T13:55:20;58.50;;;37.80;;
12774;SDS011;6451;42.630;23.382;2022-11-15T13:57:49;60.40;;;37.43;;
12774;SDS011;6451;42.630;23.382;2022-11-15T14:00:26;54.73;;;36.37;;
12774;SDS011;6451;42.630;23.382;2022-11-15T14:03:06;56.47;;;36.67;;
12774;SDS011;6451;42.630;23.382;2022-11-15T14:05:42;61.27;;;37.43;;
12774;SDS011;6451;42.630;23.382;2022-11-15T14:08:21;58.70;;;37.70;;
12774;SDS011;6451;42.630;23.382;2022-11-15T14:13:33;64.27;;;40.23;;
12774;SDS011;6451;42.630;23.382;2022-11-15T14:16:12;58.50;;;39.20;;
12774;SDS011;6451;42.630;23.382;2022-11-15T14:18:47;70.10;;;41.90;;
12774;SDS011;6451;42.630;23.382;2022-11-15T14:21:16;61.23;;;39.77;;
12774;SDS011;6451;42.630;23.382;2022-11-15T14:23:44;61.97;;;40.00;;
12774;SDS011;6451;42.630;23.382;2022-11-15T14:26:25;64.07;;;39.87;;
12774;SDS011;6451;42.630;23.382;2022-11-15T14:28:54;65.30;;;38.73;;
12774;SDS011;6451;42.630;23.382;2022-11-15T14:31:21;65.03;;;39.70;;
12774;SDS011;6451;42.630;23.382;2022-11-15T14:33:49;67.27;;;40.00;;
12774;SDS011;6451;42.630;23.382;2022-11-15T14:36:17;64.43;;;39.10;;
12774;SDS011;6451;42.630;23.382;2022-11-15T14:38:47;71.33;;;39.47;;
12774;SDS011;6451;42.630;23.382;2022-11-15T14:41:17;68.63;;;40.60;;
12774;SDS011;6451;42.630;23.382;2022-11-15T14:43:46;66.63;;;40.00;;
12774;SDS011;6451;42.630;23.382;2022-11-15T14:46:13;70.50;;;41.97;;
12774;SDS011;6451;42.630;23.382;2022-11-15T14:48:40;67.37;;;42.47;;
12774;SDS011;6451;42.630;23.382;2022-11-15T14:51:11;67.70;;;41.77;;
12774;SDS011;6451;42.630;23.382;2022-11-15T14:53:39;62.17;;;41.77;;
12774;SDS011;6451;42.630;23.382;2022-11-15T14:56:06;65.37;;;43.23;;
12774;SDS011;6451;42.630;23.382;2022-11-15T14:58:34;69.80;;;42.60;;
12774;SDS011;6451;42.630;23.382;2022-11-15T15:01:01;67.43;;;43.23;;
12774;SDS011;6451;42.630;23.382;2022-11-15T15:03:29;69.83;;;43.03;;
12774;SDS011;6451;42.630;23.382;2022-11-15T15:05:56;62.90;;;43.20;;
12774;SDS011;6451;42.630;23.382;2022-11-15T15:08:24;71.80;;;46.63;;
12774;SDS011;6451;42.630;23.382;2022-11-15T15:10:51;67.23;;;43.97;;
12774;SDS011;6451;42.630;23.382;2022-11-15T15:13:19;66.60;;;43.17;;
12774;SDS011;6451;42.630;23.382;2022-11-15T15:15:47;67.07;;;44.67;;
12774;SDS011;6451;42.630;23.382;2022-11-15T15:18:15;76.57;;;46.20;;